Time;durP1;ratioP1;P1;durP2;ratioP2;P2;SDS_P1;SDS_P2;PMS_P1;PMS_P2;Temp;Humidity;BMP_temperature;BMP_pressure;BME280_temperature;BME280_humidity;BME280_pressure;Samples;Min_cycle;Max_cycle;Signal;HPM_P1;HPM_P2
2023/06/19 00:00:12;;;;;;;12.40;7.40;;;22.40;88.40;;;;;;4934924;29;20047;-85
2023/06/19 00:02:38;;;;;;;11.02;6.97;;;22.50;88.20;;;;;;4932990;29;20048;-85
2023/06/19 00:05:08;;;;;;;11.15;6.68;;;22.50;88.00;;;;;;4933327;29;20110;-86
2023/06/19 00:07:34;;;;;;;12.57;7.57;;;22.50;87.60;;;;;;4934239;29;20055;-85
2023/06/19 00:12:34;;;;;;;12.40;7.10;;;22.60;86.60;;;;;;4978407;23;20042;-85
2023/06/19 00:15:00;;;;;;;11.40;6.85;;;22.60;86.80;;;;;;4938304;29;20051;-85
2023/06/19 00:17:27;;;;;;;11.75;7.40;;;22.70;86.60;;;;;;4954684;29;20090;-86
2023/06/19 00:19:53;;;;;;;12.02;7.07;;;22.70;86.20;;;;;;4937055;29;20138;-85
2023/06/19 00:22:18;;;;;;;12.35;7.38;;;22.70;86.00;;;;;;4936205;29;20166;-86
2023/06/19 00:25:04;;;;;;;11.43;6.78;;;22.70;85.90;;;;;;4954220;28;20046;-85
2023/06/19 00:27:47;;;;;;;12.68;6.85;;;22.70;84.90;;;;;;4936919;29;20086;-85
2023/06/19 00:30:13;;;;;;;11.27;6.30;;;22.70;85.20;;;;;;4953457;28;20483;-85
2023/06/19 00:32:46;;;;;;;10.57;6.43;;;22.80;85.60;;;;;;4954759;28;20159;-85
2023/06/19 00:35:23;;;;;;;11.43;6.63;;;22.70;85.40;;;;;;4938064;29;20074;-85
2023/06/19 00:37:49;;;;;;;11.48;6.60;;;22.80;85.30;;;;;;4953413;28;20078;-85
2023/06/19 00:40:29;;;;;;;11.50;6.97;;;22.80;85.30;;;;;;4953968;28;20479;-85
2023/06/19 00:42:55;;;;;;;11.63;6.90;;;22.80;85.30;;;;;;4954289;29;20043;-85
2023/06/19 00:45:21;;;;;;;13.60;7.00;;;22.80;85.60;;;;;;4936000;29;20134;-85
2023/06/19 00:48:00;;;;;;;10.95;6.95;;;22.70;85.40;;;;;;4954208;28;20138;-85
2023/06/19 00:50:27;;;;;;;11.95;6.80;;;22.70;85.30;;;;;;4946650;29;20915;-85
2023/06/19 00:52:53;;;;;;;11.50;7.03;;;23.30;85.70;;;;;;4954188;28;20044;-85
2023/06/19 00:55:19;;;;;;;12.43;6.82;;;22.80;85.40;;;;;;4936574;29;20126;-85
2023/06/19 00:58:03;;;;;;;10.82;6.90;;;22.70;85.50;;;;;;4933151;29;20147;-85
2023/06/19 01:00:28;;;;;;;11.25;7.22;;;22.70;85.60;;;;;;4954336;28;20091;-85
2023/06/19 01:02:55;;;;;;;11.00;7.15;;;22.60;85.60;;;;;;4952700;28;20043;-85
2023/06/19 01:05:21;;;;;;;10.85;7.15;;;22.60;85.70;;;;;;4935981;29;20090;-85
2023/06/19 01:08:02;;;;;;;11.73;6.90;;;22.60;86.10;;;;;;4936943;29;20479;-85
2023/06/19 01:10:32;;;;;;;11.45;6.85;;;22.50;86.20;;;;;;4984603;23;20058;-85
2023/06/19 01:13:31;;;;;;;13.40;7.10;;;22.70;86.40;;;;;;4994031;28;20057;-85
2023/06/19 01:15:58;;;;;;;11.45;7.10;;;22.50;86.60;;;;;;4910368;28;20124;-85
2023/06/19 01:18:29;;;;;;;11.10;6.45;;;22.30;86.60;;;;;;4960364;28;20081;-86
2023/06/19 01:20:54;;;;;;;10.93;7.00;;;22.40;87.00;;;;;;4996412;28;20049;-85
2023/06/19 01:23:20;;;;;;;10.95;7.03;;;22.30;87.10;;;;;;4995587;28;20058;-85
2023/06/19 01:25:51;;;;;;;11.88;6.75;;;22.30;87.30;;;;;;4994906;28;20053;-85
2023/06/19 01:28:16;;;;;;;13.80;7.28;;;22.40;87.60;;;;;;4978469;28;20628;-86
2023/06/19 01:30:42;;;;;;;12.35;7.25;;;22.30;87.50;;;;;;4995964;28;20047;-85
2023/06/19 01:33:18;;;;;;;11.13;6.93;;;22.80;87.90;;;;;;4995068;28;20050;-85
2023/06/19 01:35:46;;;;;;;11.18;6.80;;;22.30;88.00;;;;;;4978119;28;20042;-85
2023/06/19 01:38:16;;;;;;;11.15;6.70;;;22.20;88.00;;;;;;4995371;28;20405;-86
2023/06/19 01:40:42;;;;;;;11.38;7.03;;;22.20;88.10;;;;;;4985351;28;20042;-85
2023/06/19 01:43:09;;;;;;;11.27;7.30;;;22.20;88.30;;;;;;4997369;28;20387;-85
2023/06/19 01:45:35;;;;;;;12.27;7.40;;;22.20;88.60;;;;;;4962586;28;20043;-85
2023/06/19 01:48:01;;;;;;;12.20;7.47;;;22.20;88.80;;;;;;4957970;28;20402;-86
2023/06/19 01:50:27;;;;;;;11.10;6.95;;;22.10;89.00;;;;;;4958734;28;20181;-85
2023/06/19 01:52:53;;;;;;;10.95;6.93;;;22.00;89.10;;;;;;4958700;28;20486;-85
2023/06/19 01:55:19;;;;;;;13.48;7.32;;;22.30;89.50;;;;;;4975076;28;20061;-85
2023/06/19 01:57:45;;;;;;;10.60;6.82;;;22.00;89.70;;;;;;4958715;28;20130;-85
2023/06/19 02:00:12;;;;;;;11.63;7.30;;;21.90;89.80;;;;;;4958349;28;20053;-85
2023/06/19 02:02:38;;;;;;;11.13;6.88;;;21.90;90.00;;;;;;4975249;28;20484;-85
2023/06/19 02:05:04;;;;;;;12.05;7.53;;;21.90;90.10;;;;;;4957766;28;20102;-85
2023/06/19 02:07:30;;;;;;;12.13;7.20;;;21.80;90.20;;;;;;4957688;28;20410;-85
2023/06/19 02:09:56;;;;;;;11.77;7.10;;;21.80;90.30;;;;;;4975833;28;20055;-85
2023/06/19 02:12:22;;;;;;;13.57;7.60;;;21.80;90.40;;;;;;4958556;28;20066;-85
2023/06/19 02:15:07;;;;;;;11.98;7.32;;;21.80;90.50;;;;;;4975295;28;20039;-85
2023/06/19 02:17:33;;;;;;;12.25;7.47;;;21.70;90.60;;;;;;4942056;28;20058;-85
2023/06/19 02:19:59;;;;;;;14.43;7.63;;;22.40;90.90;;;;;;4958161;28;20065;-85
2023/06/19 02:22:24;;;;;;;11.73;7.10;;;21.70;90.80;;;;;;4974853;28;20150;-85
2023/06/19 02:24:50;;;;;;;14.10;7.18;;;21.70;90.90;;;;;;4974975;28;20082;-85
2023/06/19 02:27:16;;;;;;;13.55;7.40;;;21.60;90.90;;;;;;4975079;28;20097;-85
2023/06/19 02:29:42;;;;;;;11.43;7.20;;;21.60;91.00;;;;;;4957596;28;20047;-85
2023/06/19 02:32:22;;;;;;;11.57;7.03;;;22.20;91.10;;;;;;4958073;28;20097;-85
2023/06/19 02:34:47;;;;;;;12.18;7.45;;;21.70;91.00;;;;;;4975675;28;20045;-85
2023/06/19 02:37:13;;;;;;;12.70;7.30;;;21.80;91.00;;;;;;4974570;28;20122;-85
2023/06/19 02:39:39;;;;;;;10.55;6.50;;;22.30;91.10;;;;;;4975299;28;20038;-85
2023/06/19 02:42:20;;;;;;;11.55;7.30;;;21.80;91.10;;;;;;4974958;28;20110;-85
2023/06/19 02:44:45;;;;;;;11.98;7.47;;;21.80;91.50;;;;;;4957153;28;20514;-85
2023/06/19 02:47:11;;;;;;;12.25;7.40;;;21.80;91.20;;;;;;4957520;28;20042;-85
2023/06/19 02:49:37;;;;;;;13.23;7.15;;;21.80;91.30;;;;;;4957747;28;20038;-85
2023/06/19 02:52:02;;;;;;;12.50;7.22;;;21.80;91.20;;;;;;4974334;28;20050;-85
2023/06/19 02:54:28;;;;;;;14.50;7.47;;;21.90;91.40;;;;;;4974972;28;20502;-85
2023/06/19 02:57:06;;;;;;;11.52;7.28;;;21.80;91.40;;;;;;4957081;28;20061;-85
2023/06/19 02:59:31;;;;;;;12.23;7.60;;;21.80;91.90;;;;;;4957817;28;20047;-85
2023/06/19 03:01:57;;;;;;;12.30;7.30;;;21.70;91.70;;;;;;4974762;28;20039;-85
2023/06/19 03:04:23;;;;;;;11.45;7.22;;;21.80;91.80;;;;;;4974353;28;20399;-85
2023/06/19 03:06:49;;;;;;;11.38;7.20;;;21.70;91.90;;;;;;4974693;28;20046;-85
2023/06/19 03:09:15;;;;;;;12.27;7.35;;;21.70;92.00;;;;;;4974116;28;20050;-85
2023/06/19 03:11:41;;;;;;;12.40;7.45;;;21.70;92.10;;;;;;4973933;28;20097;-85
2023/06/19 03:14:07;;;;;;;12.40;6.88;;;21.70;92.30;;;;;;4957033;28;20074;-85
2023/06/19 03:16:34;;;;;;;11.65;7.20;;;21.70;92.40;;;;;;5028846;23;20066;-85
2023/06/19 03:19:00;;;;;;;12.35;6.88;;;21.50;92.50;;;;;;4956089;28;20054;-85
2023/06/19 03:21:26;;;;;;;12.80;7.00;;;21.60;92.80;;;;;;4957088;28;20105;-85
2023/06/19 03:23:52;;;;;;;11.77;6.90;;;21.60;92.90;;;;;;4974739;28;20054;-85
2023/06/19 03:26:21;;;;;;;13.15;6.72;;;21.60;93.00;;;;;;4955793;28;20042;-85
2023/06/19 03:28:47;;;;;;;10.63;6.47;;;21.60;93.50;;;;;;4974642;28;20057;-85
2023/06/19 03:31:13;;;;;;;11.88;6.35;;;21.60;93.40;;;;;;4956624;28;20047;-85
2023/06/19 03:33:39;;;;;;;11.77;6.38;;;21.60;93.60;;;;;;4973778;28;20092;-85
2023/06/19 03:36:05;;;;;;;10.77;6.97;;;21.60;93.70;;;;;;4955930;28;20129;-85
2023/06/19 03:38:31;;;;;;;11.25;6.55;;;21.70;93.90;;;;;;4957081;28;20070;-85
2023/06/19 03:40:57;;;;;;;11.93;6.85;;;21.70;93.90;;;;;;4973220;28;20451;-85
2023/06/19 03:43:22;;;;;;;10.45;6.18;;;21.70;94.10;;;;;;4956971;28;20085;-85
2023/06/19 03:45:48;;;;;;;11.65;6.50;;;21.70;94.10;;;;;;4974141;28;20051;-85
2023/06/19 03:48:15;;;;;;;10.85;6.20;;;21.70;94.20;;;;;;4955796;28;20042;-85
2023/06/19 03:50:43;;;;;;;10.88;6.38;;;21.70;94.30;;;;;;4974193;28;20144;-85
2023/06/19 03:53:09;;;;;;;12.57;6.15;;;21.80;94.50;;;;;;4955797;28;20054;-85
2023/06/19 03:58:23;;;;;;;12.30;6.53;;;21.80;94.60;;;;;;4974131;28;20061;-85
2023/06/19 04:00:49;;;;;;;11.13;6.60;;;22.00;94.70;;;;;;4949643;28;20051;-84
2023/06/19 04:03:14;;;;;;;11.13;6.60;;;21.70;94.70;;;;;;4951973;28;20046;-85
2023/06/19 04:05:42;;;;;;;11.00;6.53;;;21.80;94.90;;;;;;4964084;28;20097;-85
2023/06/19 04:08:07;;;;;;;12.52;6.88;;;21.70;95.00;;;;;;4955008;28;20054;-85
2023/06/19 04:10:33;;;;;;;12.20;6.30;;;21.70;95.20;;;;;;4956377;28;20059;-85
2023/06/19 04:12:59;;;;;;;11.60;6.10;;;21.70;95.40;;;;;;4955188;28;20046;-85
2023/06/19 04:15:24;;;;;;;11.65;6.60;;;21.60;95.40;;;;;;4972571;28;20051;-85
2023/06/19 04:17:55;;;;;;;12.07;6.05;;;21.30;95.50;;;;;;4973797;28;20049;-85
2023/06/19 04:20:21;;;;;;;10.48;6.30;;;21.60;96.10;;;;;;4956320;28;20058;-85
2023/06/19 04:22:47;;;;;;;11.05;6.18;;;21.60;95.80;;;;;;4972889;28;20043;-85
2023/06/19 04:25:13;;;;;;;11.52;6.32;;;21.50;96.10;;;;;;4955873;28;20054;-85
2023/06/19 04:27:39;;;;;;;11.02;6.15;;;21.40;96.40;;;;;;4956781;28;20050;-84
2023/06/19 04:30:08;;;;;;;11.38;6.50;;;21.50;96.50;;;;;;4955923;28;20112;-84
2023/06/19 04:32:40;;;;;;;11.35;6.03;;;21.50;96.20;;;;;;4973787;28;20039;-85
2023/06/19 04:35:08;;;;;;;9.55;5.30;;;21.50;96.70;;;;;;4955953;28;20096;-85
2023/06/19 04:37:33;;;;;;;11.50;5.35;;;21.50;96.60;;;;;;4966814;28;20047;-85
2023/06/19 04:39:59;;;;;;;10.80;5.50;;;21.50;96.60;;;;;;4945152;28;20037;-85
2023/06/19 04:42:26;;;;;;;11.10;5.50;;;21.40;97.10;;;;;;4972866;28;20046;-85
2023/06/19 04:44:55;;;;;;;11.35;5.32;;;21.40;96.90;;;;;;4972971;28;20406;-85
2023/06/19 04:47:28;;;;;;;11.43;5.32;;;21.40;96.90;;;;;;4956895;28;20058;-84
2023/06/19 04:49:54;;;;;;;10.52;5.30;;;21.40;97.00;;;;;;4958832;28;20055;-84
2023/06/19 04:52:26;;;;;;;13.70;5.35;;;21.40;97.00;;;;;;4977296;28;20117;-86
2023/06/19 04:54:54;;;;;;;11.30;4.85;;;21.40;97.50;;;;;;4959557;28;20050;-84
2023/06/19 04:57:22;;;;;;;10.05;5.15;;;21.40;97.40;;;;;;4959015;28;20113;-85
2023/06/19 04:59:54;;;;;;;10.82;5.53;;;21.30;97.50;;;;;;4959636;28;20053;-85
2023/06/19 05:02:23;;;;;;;10.50;5.40;;;21.40;97.60;;;;;;4959119;28;20047;-85
2023/06/19 05:04:52;;;;;;;10.73;5.63;;;21.40;97.70;;;;;;4976181;28;20043;-84
2023/06/19 05:07:21;;;;;;;10.43;5.07;;;21.60;97.80;;;;;;4959010;28;20466;-85
2023/06/19 05:09:47;;;;;;;9.63;4.60;;;21.50;97.90;;;;;;4959262;28;20054;-84
2023/06/19 05:12:24;;;;;;;11.10;5.00;;;21.60;97.90;;;;;;4958197;28;20042;-84
2023/06/19 05:14:50;;;;;;;11.80;4.93;;;21.70;98.20;;;;;;4976328;28;20047;-85
2023/06/19 05:17:22;;;;;;;11.10;4.35;;;21.60;98.00;;;;;;4955617;28;20055;-85
2023/06/19 05:19:48;;;;;;;12.05;4.68;;;21.90;98.60;;;;;;4956172;28;20047;-85
2023/06/19 05:22:14;;;;;;;10.57;4.63;;;21.50;98.70;;;;;;4955832;28;20491;-85
2023/06/19 05:24:42;;;;;;;13.98;4.57;;;21.50;98.50;;;;;;4955362;28;20078;-85
2023/06/19 05:27:08;;;;;;;12.25;4.10;;;21.80;99.80;;;;;;4956906;28;20075;-84
2023/06/19 05:29:40;;;;;;;8.55;3.80;;;21.30;99.90;;;;;;4956153;28;20423;-84
2023/06/19 05:32:09;;;;;;;9.50;4.30;;;21.20;99.90;;;;;;4956325;28;20054;-84
2023/06/19 05:34:44;;;;;;;8.98;4.13;;;20.90;99.90;;;;;;4956178;28;20082;-88
2023/06/19 05:37:09;;;;;;;8.98;4.40;;;21.50;99.90;;;;;;4955402;28;20137;-88
2023/06/19 05:39:38;;;;;;;10.18;4.70;;;21.00;99.90;;;;;;4956352;28;20122;-83
2023/06/19 05:42:16;;;;;;;9.25;4.72;;;20.80;99.90;;;;;;4955359;28;20043;-81
2023/06/19 05:44:54;;;;;;;9.77;4.22;;;20.90;99.90;;;;;;4955447;28;20055;-81
2023/06/19 05:47:25;;;;;;;8.90;4.28;;;20.80;99.90;;;;;;4955908;28;20047;-81
2023/06/19 05:49:51;;;;;;;9.70;4.32;;;20.80;99.90;;;;;;4955019;28;20432;-81
2023/06/19 05:52:23;;;;;;;9.43;4.68;;;20.80;99.90;;;;;;4955003;28;20054;-81
2023/06/19 05:54:53;;;;;;;10.05;4.60;;;20.80;99.90;;;;;;4954441;28;20138;-80
2023/06/19 05:57:25;;;;;;;9.38;4.53;;;20.90;99.90;;;;;;4955009;28;20135;-80
2023/06/19 06:00:05;;;;;;;8.85;4.22;;;20.90;99.90;;;;;;4954156;28;20057;-80
2023/06/19 06:02:40;;;;;;;8.90;4.53;;;20.90;99.90;;;;;;4955449;29;20054;-80
2023/06/19 06:05:11;;;;;;;9.18;4.70;;;21.00;99.90;;;;;;4956129;28;20503;-80
2023/06/19 06:07:40;;;;;;;9.02;4.20;;;21.00;99.90;;;;;;4954476;28;20051;-79
2023/06/19 06:10:16;;;;;;;11.65;4.60;;;21.10;99.90;;;;;;4956467;28;20039;-80
2023/06/19 06:12:43;;;;;;;11.15;4.80;;;21.10;99.90;;;;;;4956519;28;20043;-81
2023/06/19 06:15:24;;;;;;;9.88;4.60;;;21.20;99.90;;;;;;4953702;28;20103;-80
2023/06/19 06:17:49;;;;;;;9.07;4.28;;;21.70;99.90;;;;;;4955872;28;20153;-80
2023/06/19 06:20:16;;;;;;;9.57;4.53;;;21.40;99.90;;;;;;4957997;28;20086;-80
2023/06/19 06:22:48;;;;;;;10.35;4.43;;;21.40;99.90;;;;;;4957296;28;20046;-80
2023/06/19 06:25:16;;;;;;;10.68;4.20;;;21.50;99.90;;;;;;4975158;28;20047;-80
2023/06/19 06:27:51;;;;;;;9.27;4.32;;;21.50;99.90;;;;;;4975090;28;20050;-79
2023/06/19 06:30:20;;;;;;;9.18;4.55;;;21.70;99.90;;;;;;4957839;28;20057;-80
2023/06/19 06:32:49;;;;;;;11.20;4.57;;;21.80;99.90;;;;;;4958085;28;20398;-78
2023/06/19 06:35:15;;;;;;;8.73;4.18;;;21.70;99.90;;;;;;4974533;28;20039;-78
2023/06/19 06:37:50;;;;;;;11.05;4.60;;;21.70;99.90;;;;;;4975214;28;20495;-78
2023/06/19 06:40:24;;;;;;;11.25;4.22;;;21.80;99.90;;;;;;4975083;28;20057;-80
2023/06/19 06:43:05;;;;;;;8.68;4.43;;;21.70;99.90;;;;;;4974519;28;20046;-78
2023/06/19 06:45:43;;;;;;;11.77;4.70;;;21.80;99.90;;;;;;4957363;28;20042;-79
2023/06/19 06:48:11;;;;;;;8.95;4.60;;;21.90;99.90;;;;;;4976756;28;20046;-78
2023/06/19 06:50:46;;;;;;;10.25;4.68;;;21.70;99.90;;;;;;4956399;28;20399;-78
2023/06/19 06:53:12;;;;;;;9.10;4.40;;;22.30;99.90;;;;;;4957580;28;20121;-78
2023/06/19 06:55:37;;;;;;;11.50;5.07;;;22.10;99.90;;;;;;4957349;28;20210;-78
2023/06/19 06:58:03;;;;;;;9.13;4.60;;;22.10;99.90;;;;;;4973907;28;20069;-78
2023/06/19 07:00:29;;;;;;;10.10;4.63;;;21.70;99.90;;;;;;4974944;28;20046;-79
2023/06/19 07:02:54;;;;;;;11.35;4.90;;;21.70;99.90;;;;;;4974037;28;20097;-78
2023/06/19 07:05:20;;;;;;;10.30;4.57;;;21.80;99.90;;;;;;4974126;28;20129;-78
2023/06/19 07:07:46;;;;;;;11.00;4.78;;;21.80;99.90;;;;;;4975027;28;20042;-77
2023/06/19 07:10:11;;;;;;;9.90;4.88;;;21.80;99.90;;;;;;4973468;28;20542;-78
2023/06/19 07:12:48;;;;;;;9.27;4.88;;;22.00;99.90;;;;;;4967401;28;20043;-78
2023/06/19 07:15:13;;;;;;;9.30;4.80;;;22.00;99.90;;;;;;4974670;28;20051;-79
2023/06/19 07:17:39;;;;;;;12.07;4.97;;;22.00;99.90;;;;;;4973529;28;20051;-79
2023/06/19 07:20:06;;;;;;;10.23;4.55;;;22.10;99.90;;;;;;4956846;28;20190;-79
2023/06/19 07:22:32;;;;;;;9.93;4.65;;;22.40;99.90;;;;;;4956881;28;20434;-79
2023/06/19 07:24:57;;;;;;;11.05;5.47;;;22.50;99.90;;;;;;4973125;28;20051;-79
2023/06/19 07:27:27;;;;;;;12.43;4.97;;;22.50;99.90;;;;;;4956879;28;20566;-79
2023/06/19 07:29:53;;;;;;;10.15;4.68;;;22.30;99.90;;;;;;4974405;28;20067;-79
2023/06/19 07:32:19;;;;;;;10.07;4.90;;;22.30;99.90;;;;;;4973214;28;20460;-79
2023/06/19 07:34:45;;;;;;;11.68;4.75;;;22.20;99.90;;;;;;4957278;28;20097;-79
2023/06/19 07:37:17;;;;;;;9.75;4.80;;;22.00;99.90;;;;;;4956357;28;20047;-80
2023/06/19 07:39:46;;;;;;;10.02;4.82;;;21.90;99.90;;;;;;4973662;28;20031;-80
2023/06/19 07:42:13;;;;;;;9.75;4.78;;;21.70;99.90;;;;;;4974046;28;20117;-80
2023/06/19 07:44:39;;;;;;;10.80;4.90;;;21.80;99.90;;;;;;4957019;28;20405;-79
2023/06/19 07:47:04;;;;;;;10.55;5.03;;;21.70;99.90;;;;;;4972981;28;20054;-79
2023/06/19 07:49:30;;;;;;;9.55;4.85;;;21.80;99.90;;;;;;4956499;28;20050;-80
2023/06/19 07:51:56;;;;;;;13.25;5.13;;;22.00;99.90;;;;;;4956917;28;20058;-79
2023/06/19 07:54:21;;;;;;;9.85;5.32;;;22.10;99.90;;;;;;4955346;28;20407;-80
2023/06/19 07:56:47;;;;;;;11.30;5.45;;;22.20;99.90;;;;;;4974053;28;20122;-81
2023/06/19 07:59:13;;;;;;;10.32;5.30;;;22.50;99.90;;;;;;4973152;28;20053;-80
2023/06/19 08:01:39;;;;;;;10.60;5.20;;;22.40;99.90;;;;;;4956320;28;20038;-81
2023/06/19 08:04:05;;;;;;;9.27;5.38;;;22.00;99.90;;;;;;4951099;28;20093;-79
2023/06/19 08:06:31;;;;;;;11.70;5.38;;;22.30;99.90;;;;;;4954569;28;20046;-79
2023/06/19 08:08:57;;;;;;;10.55;4.80;;;22.40;99.90;;;;;;4955063;28;20054;-80
2023/06/19 08:11:23;;;;;;;9.43;4.32;;;22.40;99.90;;;;;;4973405;28;20053;-79
2023/06/19 08:13:49;;;;;;;10.73;4.50;;;22.40;99.90;;;;;;4955273;28;20117;-80
2023/06/19 08:16:14;;;;;;;9.45;4.50;;;22.50;99.90;;;;;;4972700;28;20442;-79
2023/06/19 08:18:40;;;;;;;8.77;4.10;;;22.10;99.90;;;;;;4973294;28;20054;-80
2023/06/19 08:21:05;;;;;;;9.63;4.85;;;22.10;99.90;;;;;;4954518;28;20037;-80
2023/06/19 08:23:31;;;;;;;11.48;4.68;;;22.20;99.90;;;;;;4971324;28;20067;-79
2023/06/19 08:25:59;;;;;;;9.00;4.68;;;21.90;99.90;;;;;;4954924;28;20039;-79
2023/06/19 08:28:25;;;;;;;9.80;4.85;;;21.90;99.90;;;;;;4954777;28;20047;-79
2023/06/19 08:30:50;;;;;;;9.40;5.18;;;21.80;99.90;;;;;;4956133;28;20050;-79
2023/06/19 08:33:17;;;;;;;12.35;5.43;;;21.80;99.90;;;;;;4956116;28;20065;-79
2023/06/19 08:35:44;;;;;;;9.25;4.72;;;21.90;99.90;;;;;;4972841;28;20126;-79
2023/06/19 08:38:10;;;;;;;10.75;5.38;;;22.00;99.90;;;;;;4956008;28;20065;-79
2023/06/19 08:40:35;;;;;;;11.15;5.75;;;22.50;99.90;;;;;;4956533;28;20050;-79
2023/06/19 08:43:01;;;;;;;11.90;5.55;;;22.00;99.90;;;;;;4954811;28;20046;-79
2023/06/19 08:45:27;;;;;;;11.82;6.18;;;22.00;99.90;;;;;;4973482;28;20431;-78
2023/06/19 08:48:02;;;;;;;10.85;5.90;;;22.00;99.90;;;;;;4955838;28;20542;-79
2023/06/19 08:50:27;;;;;;;12.55;6.55;;;21.90;99.90;;;;;;4972809;28;20073;-79
2023/06/19 08:52:54;;;;;;;11.43;7.22;;;21.90;99.90;;;;;;4955970;28;20495;-79
2023/06/19 08:55:20;;;;;;;12.50;7.25;;;21.90;99.90;;;;;;4973180;28;20039;-79
2023/06/19 08:57:49;;;;;;;13.52;7.40;;;21.90;99.90;;;;;;4955151;28;20043;-78
2023/06/19 09:00:25;;;;;;;13.27;7.50;;;21.90;99.90;;;;;;4973077;28;20085;-79
2023/06/19 09:02:52;;;;;;;11.80;7.05;;;21.80;99.90;;;;;;4972125;28;20049;-79
2023/06/19 09:05:19;;;;;;;13.77;7.20;;;21.80;99.90;;;;;;4955581;28;20082;-79
2023/06/19 09:07:55;;;;;;;14.65;7.75;;;21.80;99.90;;;;;;4955446;28;20054;-79
2023/06/19 09:10:21;;;;;;;12.10;7.18;;;21.70;99.90;;;;;;4954010;28;20065;-80
2023/06/19 09:13:03;;;;;;;13.57;7.28;;;21.60;99.90;;;;;;4973375;28;20043;-81
2023/06/19 09:15:36;;;;;;;14.15;7.40;;;21.60;99.90;;;;;;4973162;28;20055;-80
2023/06/19 09:18:10;;;;;;;14.40;6.80;;;21.50;99.90;;;;;;4954171;28;20086;-80
2023/06/19 09:20:43;;;;;;;14.07;7.30;;;21.40;99.90;;;;;;4956001;28;20089;-80
2023/06/19 09:23:10;;;;;;;9.75;5.82;;;21.30;99.90;;;;;;4956095;28;20046;-80
2023/06/19 09:25:50;;;;;;;11.57;6.45;;;21.90;99.90;;;;;;4972024;28;20104;-80
2023/06/19 09:28:26;;;;;;;12.45;6.35;;;21.40;99.90;;;;;;4954650;28;20102;-81
2023/06/19 09:31:01;;;;;;;11.45;5.93;;;21.20;99.90;;;;;;4953483;28;20039;-80
2023/06/19 09:33:32;;;;;;;11.57;6.03;;;21.20;99.90;;;;;;4954555;28;20396;-80
2023/06/19 09:35:59;;;;;;;11.45;5.93;;;21.40;99.90;;;;;;4968844;28;20042;-80
2023/06/19 09:38:30;;;;;;;11.00;5.15;;;21.40;99.90;;;;;;4955894;28;20438;-81
2023/06/19 09:40:59;;;;;;;11.18;5.68;;;21.50;99.90;;;;;;4958915;28;20043;-80
2023/06/19 09:43:33;;;;;;;11.45;5.78;;;21.60;99.90;;;;;;4976347;28;20078;-80
2023/06/19 09:45:59;;;;;;;12.50;5.93;;;21.80;99.90;;;;;;4957816;28;20085;-80
2023/06/19 09:48:30;;;;;;;11.23;5.82;;;21.90;99.90;;;;;;4975871;28;20047;-81
2023/06/19 09:51:17;;;;;;;11.55;5.30;;;22.20;99.90;;;;;;4956451;28;20453;-81
2023/06/19 09:53:48;;;;;;;10.98;6.50;;;22.60;99.90;;;;;;4957628;28;20059;-81
2023/06/19 09:56:15;;;;;;;11.52;7.10;;;23.20;99.90;;;;;;4952936;28;20117;-81
2023/06/19 09:58:42;;;;;;;13.10;8.20;;;23.40;99.90;;;;;;4957168;28;20483;-81
2023/06/19 10:01:09;;;;;;;12.18;7.57;;;23.30;99.90;;;;;;4974945;28;20495;-81
2023/06/19 10:03:35;;;;;;;12.73;7.53;;;23.20;99.90;;;;;;4957989;28;20456;-81
2023/06/19 10:06:02;;;;;;;11.90;8.68;;;23.40;99.90;;;;;;4957383;28;20047;-81
2023/06/19 10:08:31;;;;;;;12.95;8.68;;;23.60;99.90;;;;;;4958281;28;20454;-82
2023/06/19 10:10:59;;;;;;;13.55;9.02;;;24.00;98.20;;;;;;4957896;28;20108;-80
2023/06/19 10:13:33;;;;;;;14.02;9.60;;;24.00;98.70;;;;;;4972736;28;20038;-81
2023/06/19 10:15:59;;;;;;;14.32;9.70;;;24.10;97.90;;;;;;4974191;28;20039;-82
2023/06/19 10:18:26;;;;;;;12.90;10.02;;;23.80;97.60;;;;;;4958167;28;20055;-80
2023/06/19 10:20:53;;;;;;;13.70;10.30;;;23.70;97.50;;;;;;4957428;28;20050;-81
2023/06/19 10:23:22;;;;;;;14.85;10.18;;;23.70;97.00;;;;;;4956665;28;20189;-81
2023/06/19 10:26:08;;;;;;;14.43;9.05;;;24.10;96.70;;;;;;4958395;28;20398;-81
2023/06/19 10:28:34;;;;;;;14.68;9.88;;;24.20;95.80;;;;;;4956407;28;20063;-81
2023/06/19 10:31:07;;;;;;;11.13;8.45;;;23.90;96.50;;;;;;4975634;28;20039;-82
2023/06/19 10:33:34;;;;;;;;;;;24.00;95.90;;;;;;4958900;28;20403;-81
2023/06/19 10:36:22;;;;;;;11.70;7.50;;;24.00;96.10;;;;;;4974651;28;19925;-81
2023/06/19 10:38:49;;;;;;;12.38;6.38;;;24.10;96.20;;;;;;4958298;28;20426;-80
2023/06/19 10:41:22;;;;;;;10.98;6.00;;;24.30;95.40;;;;;;4974797;28;20142;-80
2023/06/19 10:44:06;;;;;;;11.32;6.65;;;24.20;95.10;;;;;;4972881;28;20053;-79
2023/06/19 10:46:35;;;;;;;12.43;6.70;;;24.20;95.10;;;;;;4955448;28;20043;-79
2023/06/19 10:49:05;;;;;;;11.93;6.88;;;24.20;95.80;;;;;;4956358;28;20559;-81
2023/06/19 10:51:35;;;;;;;11.30;6.30;;;24.30;95.40;;;;;;4957184;28;20138;-80
2023/06/19 10:54:03;;;;;;;11.30;5.93;;;24.10;95.70;;;;;;4957010;28;20042;-82
2023/06/19 10:56:32;;;;;;;11.88;6.30;;;24.10;95.90;;;;;;4956489;28;20035;-82
2023/06/19 10:59:06;;;;;;;14.05;6.72;;;24.70;95.20;;;;;;4974500;28;20051;-81
2023/06/19 11:01:45;;;;;;;12.95;6.60;;;24.30;95.60;;;;;;4954673;28;20046;-80
2023/06/19 11:04:13;;;;;;;11.45;6.50;;;24.70;95.10;;;;;;4954521;28;20050;-81
2023/06/19 11:06:43;;;;;;;11.52;6.53;;;25.20;94.80;;;;;;4957042;28;20101;-81
2023/06/19 11:09:12;;;;;;;11.55;7.25;;;24.90;94.50;;;;;;4973674;28;20049;-80
2023/06/19 11:11:46;;;;;;;11.68;6.60;;;25.30;94.50;;;;;;4974851;28;20043;-82
2023/06/19 11:14:19;;;;;;;10.93;6.35;;;25.20;94.30;;;;;;4957046;28;20242;-87
2023/06/19 11:16:46;;;;;;;13.27;6.30;;;25.40;94.40;;;;;;4950418;29;20454;-81
2023/06/19 11:19:18;;;;;;;12.07;6.65;;;25.50;94.20;;;;;;4951567;28;20054;-81
2023/06/19 11:21:51;;;;;;;14.48;6.47;;;25.50;93.30;;;;;;4953726;29;20530;-83
2023/06/19 11:24:17;;;;;;;14.35;7.45;;;25.20;93.40;;;;;;4952011;28;20050;-81
2023/06/19 11:26:49;;;;;;;14.38;6.90;;;25.50;94.10;;;;;;4953221;29;20061;-81
2023/06/19 11:29:31;;;;;;;12.02;7.10;;;25.30;93.60;;;;;;4953697;28;20085;-80
2023/06/19 11:32:14;;;;;;;11.50;6.60;;;25.40;93.60;;;;;;4951353;29;20051;-80
2023/06/19 11:34:41;;;;;;;14.77;8.13;;;25.30;93.10;;;;;;4951794;29;20079;-81
2023/06/19 11:37:15;;;;;;;15.23;9.18;;;25.40;93.40;;;;;;4954272;28;20047;-80
2023/06/19 11:39:46;;;;;;;14.25;7.75;;;25.60;93.10;;;;;;4952644;29;20050;-80
2023/06/19 11:42:12;;;;;;;10.98;6.72;;;25.90;93.30;;;;;;4951375;29;20776;-80
2023/06/19 11:44:54;;;;;;;13.07;7.10;;;25.50;93.20;;;;;;4952895;28;20050;-80
2023/06/19 11:47:20;;;;;;;11.65;7.43;;;25.60;92.60;;;;;;4952414;28;20043;-80
2023/06/19 11:49:49;;;;;;;13.23;6.78;;;25.70;92.90;;;;;;4954239;28;20046;-80
2023/06/19 11:52:15;;;;;;;12.77;7.93;;;25.40;92.10;;;;;;4949738;29;20051;-80
2023/06/19 11:54:40;;;;;;;12.85;6.82;;;25.50;92.60;;;;;;4954392;28;20039;-81
2023/06/19 11:57:06;;;;;;;13.10;6.47;;;25.90;92.50;;;;;;4953550;28;20095;-81
2023/06/19 11:59:32;;;;;;;11.77;5.85;;;25.90;91.80;;;;;;4952262;29;20097;-81
2023/06/19 12:01:59;;;;;;;10.95;6.13;;;26.00;91.90;;;;;;4952596;28;20070;-81
2023/06/19 12:04:25;;;;;;;10.27;5.20;;;26.30;92.00;;;;;;4954397;28;20055;-81
2023/06/19 12:06:52;;;;;;;13.45;6.18;;;26.60;91.80;;;;;;4952101;28;20055;-82
2023/06/19 12:09:17;;;;;;;11.38;6.07;;;26.10;90.80;;;;;;4953627;28;20047;-81
2023/06/19 12:11:43;;;;;;;13.13;6.32;;;26.40;91.50;;;;;;4953032;28;20105;-81
2023/06/19 12:14:09;;;;;;;10.85;5.72;;;26.00;90.80;;;;;;4953150;28;20495;-81
2023/06/19 12:16:34;;;;;;;11.75;5.88;;;26.00;91.00;;;;;;4952898;29;20066;-81
2023/06/19 12:19:00;;;;;;;10.75;5.88;;;26.00;90.90;;;;;;4953289;28;20046;-82
2023/06/19 12:21:26;;;;;;;15.23;6.85;;;25.90;90.80;;;;;;4952116;28;20047;-81
2023/06/19 12:23:51;;;;;;;11.63;6.07;;;25.70;90.80;;;;;;4953789;28;20091;-81
2023/06/19 12:26:17;;;;;;;10.95;6.38;;;25.70;91.10;;;;;;4953457;28;20050;-81
2023/06/19 12:28:42;;;;;;;12.88;6.88;;;25.90;91.20;;;;;;4951708;28;20050;-80
2023/06/19 12:31:08;;;;;;;11.15;6.63;;;26.00;91.00;;;;;;4951041;28;20044;-82
2023/06/19 12:33:34;;;;;;;12.30;6.80;;;26.00;91.30;;;;;;4952107;29;20054;-81
2023/06/19 12:36:00;;;;;;;13.45;7.47;;;25.90;91.10;;;;;;4953764;28;20502;-81
2023/06/19 12:38:26;;;;;;;11.93;6.55;;;25.60;91.20;;;;;;4952418;28;20092;-81
2023/06/19 12:40:52;;;;;;;11.40;6.15;;;25.80;91.40;;;;;;4953202;28;20101;-81
2023/06/19 12:43:17;;;;;;;11.90;7.10;;;26.30;91.30;;;;;;4952597;28;20043;-81
2023/06/19 12:45:43;;;;;;;14.40;7.97;;;26.40;91.20;;;;;;4954051;28;20424;-80
2023/06/19 12:48:13;;;;;;;13.98;7.63;;;26.00;91.00;;;;;;4951450;28;20392;-81
2023/06/19 12:50:39;;;;;;;11.68;7.22;;;25.60;91.30;;;;;;4954110;28;20040;-81